createdAt,value
2022-10-17T00:01:07.306Z,92580.63
2022-10-17T00:03:36.142Z,92547.75
2022-10-17T00:06:10.282Z,92578.91
2022-10-17T00:08:37.979Z,92577.16
2022-10-17T00:11:09.214Z,92571.03
2022-10-17T00:13:36.323Z,92573.44
2022-10-17T00:16:03.572Z,92578.22
2022-10-17T00:18:30.269Z,92574.97
2022-10-17T00:20:57.306Z,92573.91
2022-10-17T00:23:24.265Z,92568.91
2022-10-17T00:26:06.038Z,92572.56
2022-10-17T00:28:33.099Z,92562.84
2022-10-17T00:31:02.526Z,92575.25
2022-10-17T00:33:29.918Z,92571.31
2022-10-17T00:36:14.588Z,92565.06
2022-10-17T00:38:43.795Z,92574.88
2022-10-17T00:41:12.684Z,92572.38
2022-10-17T00:44:17.042Z,92571.03
2022-10-17T00:46:43.750Z,92580.53
2022-10-17T00:49:12.536Z,92567.91
2022-10-17T00:51:49.325Z,92583.50
2022-10-17T00:54:19.229Z,92566.78
2022-10-17T00:56:48.481Z,92574.75
2022-10-17T00:59:17.781Z,92578.13
2022-10-17T01:01:54.059Z,92576.38
2022-10-17T01:04:21.419Z,92574.84
2022-10-17T01:06:48.065Z,92581.19
2022-10-17T01:09:14.757Z,92584.25
2022-10-17T01:11:59.951Z,92573.47
2022-10-17T01:15:04.240Z,92570.13
2022-10-17T01:17:55.641Z,92570.78
2022-10-17T01:20:37.526Z,92566.72
2022-10-17T01:23:29.009Z,92560.81
2022-10-17T01:26:33.122Z,92561.19
2022-10-17T01:29:41.904Z,92563.66
2022-10-17T01:32:29.791Z,92557.72
2022-10-17T01:35:04.206Z,92560.38
2022-10-17T01:37:33.205Z,92566.78
2022-10-17T01:40:05.978Z,92566.56
2022-10-17T01:42:32.617Z,92566.38
2022-10-17T01:45:10.699Z,92558.28
2022-10-17T01:47:38.628Z,92573.47
2022-10-17T01:50:16.955Z,92576.16
2022-10-17T01:52:48.803Z,92571.56
2022-10-17T01:55:20.557Z,92575.88
2022-10-17T01:57:52.014Z,92580.38
2022-10-17T02:00:24.824Z,92579.34
2022-10-17T02:02:57.398Z,92566.28
2022-10-17T02:05:30.914Z,92579.72
2022-10-17T02:07:57.655Z,92569.75
2022-10-17T02:11:06.245Z,92579.72
2022-10-17T02:13:38.806Z,92573.69
2022-10-17T02:16:18.922Z,92572.91
2022-10-17T02:19:22.965Z,92574.78
2022-10-17T02:22:01.798Z,92570.88
2022-10-17T02:24:49.600Z,92583.03
2022-10-17T02:27:28.731Z,92569.25
2022-10-17T02:30:24.685Z,92571.19
2022-10-17T02:33:20.529Z,92576.81
2022-10-17T02:35:54.015Z,92577.84
2022-10-17T02:38:23.275Z,92576.69
2022-10-17T02:40:52.327Z,92580.53
2022-10-17T02:43:20.818Z,92588.00
2022-10-17T02:45:48.160Z,92581.59
2022-10-17T02:48:33.022Z,92592.44
2022-10-17T02:51:16.130Z,92593.41
2022-10-17T02:53:45.839Z,92585.94
2022-10-17T02:56:18.947Z,92594.00
2022-10-17T02:58:54.843Z,92584.41
2022-10-17T03:01:22.125Z,92590.13
2022-10-17T03:03:48.871Z,92587.41
2022-10-17T03:06:15.954Z,92582.13
2022-10-17T03:08:42.630Z,92593.06
2022-10-17T03:11:09.305Z,92594.91
2022-10-17T03:13:39.051Z,92595.97
2022-10-17T03:16:06.766Z,92589.75
2022-10-17T03:18:33.451Z,92606.34
2022-10-17T03:21:00.130Z,92579.91
2022-10-17T03:23:26.789Z,92591.78
2022-10-17T03:25:53.649Z,92585.06
2022-10-17T03:28:20.251Z,92588.06
2022-10-17T03:30:46.877Z,92601.84
2022-10-17T03:33:13.570Z,92601.78
2022-10-17T03:35:40.768Z,92587.41
2022-10-17T03:38:07.454Z,92575.69
2022-10-17T03:40:34.113Z,92605.72
2022-10-17T03:43:00.801Z,92584.47
2022-10-17T03:45:27.959Z,92597.88
2022-10-17T03:47:54.562Z,92602.16
2022-10-17T03:50:21.242Z,92593.84
2022-10-17T03:52:49.195Z,92604.63
2022-10-17T03:55:16.954Z,92603.91
2022-10-17T03:57:45.558Z,92600.94
2022-10-17T04:00:13.010Z,92601.84
2022-10-17T04:02:39.692Z,92596.97
2022-10-17T04:05:07.003Z,92600.00
2022-10-17T04:07:33.672Z,92584.25
2022-10-17T04:10:00.592Z,92597.97
2022-10-17T04:12:27.544Z,92590.97
2022-10-17T04:14:54.692Z,92597.41
2022-10-17T04:17:21.527Z,92593.19
2022-10-17T04:19:49.702Z,92590.25
2022-10-17T04:22:16.467Z,92596.72
2022-10-17T04:24:43.159Z,92597.59
2022-10-17T04:27:09.800Z,92604.94
2022-10-17T04:29:36.486Z,92613.44
2022-10-17T04:32:03.412Z,92614.81
2022-10-17T04:34:30.120Z,92595.28
2022-10-17T04:36:56.758Z,92606.25
2022-10-17T04:39:23.509Z,92605.59
2022-10-17T04:41:50.226Z,92613.63
2022-10-17T04:44:16.870Z,92603.97
2022-10-17T04:46:44.220Z,92611.38
2022-10-17T04:49:10.906Z,92611.34
2022-10-17T04:51:38.530Z,92606.31
2022-10-17T04:54:05.394Z,92622.59
2022-10-17T04:56:32.063Z,92624.91
2022-10-17T04:59:00.066Z,92630.59
2022-10-17T05:01:27.238Z,92631.09
2022-10-17T05:03:54.259Z,92625.06
2022-10-17T05:06:23.629Z,92633.50
2022-10-17T05:08:50.881Z,92637.22
2022-10-17T05:11:28.724Z,92638.41
2022-10-17T05:14:00.672Z,92643.47
2022-10-17T05:16:28.703Z,92644.50
2022-10-17T05:18:57.517Z,92643.06
2022-10-17T05:21:27.071Z,92663.84
2022-10-17T05:23:54.400Z,92643.16
2022-10-17T05:26:22.165Z,92663.47
2022-10-17T05:28:48.988Z,92658.56
2022-10-17T05:31:15.757Z,92656.34
2022-10-17T05:33:42.447Z,92670.34
2022-10-17T05:36:09.212Z,92670.97
2022-10-17T05:38:35.986Z,92664.03
2022-10-17T05:41:05.080Z,92682.34
2022-10-17T05:43:33.345Z,92677.97
2022-10-17T05:46:04.245Z,92680.59
2022-10-17T05:48:30.914Z,92691.69
2022-10-17T05:50:59.592Z,92689.00
2022-10-17T05:53:26.942Z,92680.59
2022-10-17T05:55:58.880Z,92689.56
2022-10-17T05:58:45.565Z,92687.38
2022-10-17T06:01:13.969Z,92694.84
2022-10-17T06:03:40.723Z,92686.34
2022-10-17T06:06:10.250Z,92698.88
2022-10-17T06:08:37.412Z,92707.09
2022-10-17T06:11:09.086Z,92700.09
2022-10-17T06:13:37.196Z,92706.13
2022-10-17T06:16:03.975Z,92714.13
2022-10-17T06:18:30.730Z,92711.06
2022-10-17T06:21:08.767Z,92716.28
2022-10-17T06:23:35.463Z,92719.72
2022-10-17T06:26:04.235Z,92715.56
2022-10-17T06:28:31.156Z,92717.81
2022-10-17T06:30:57.970Z,92721.25
2022-10-17T06:33:24.817Z,92724.97
2022-10-17T06:35:55.838Z,92717.59
2022-10-17T06:38:22.595Z,92726.38
2022-10-17T06:40:49.493Z,92718.69
2022-10-17T06:43:16.210Z,92722.00
2022-10-17T06:45:42.856Z,92717.59
2022-10-17T06:48:09.559Z,92715.09
2022-10-17T06:50:36.253Z,92714.91
2022-10-17T06:53:03.540Z,92705.34
2022-10-17T06:55:31.606Z,92709.00
2022-10-17T06:57:58.356Z,92724.47
2022-10-17T07:00:26.941Z,92717.81
2022-10-17T07:02:53.736Z,92721.16
2022-10-17T07:05:20.431Z,92715.00
2022-10-17T07:07:49.706Z,92695.19
2022-10-17T07:10:18.461Z,92709.47
2022-10-17T07:12:45.921Z,92703.47
2022-10-17T07:15:13.211Z,92714.78
2022-10-17T07:17:40.165Z,92716.59
2022-10-17T07:20:07.946Z,92712.75
2022-10-17T07:22:34.568Z,92710.75
2022-10-17T07:25:01.788Z,92714.38
2022-10-17T07:27:29.104Z,92704.16
2022-10-17T07:29:55.997Z,92712.44
2022-10-17T07:32:22.708Z,92688.88
2022-10-17T07:34:49.332Z,92702.72
2022-10-17T07:37:16.099Z,92702.28
2022-10-17T07:39:42.748Z,92700.94
2022-10-17T07:42:10.316Z,92693.81
2022-10-17T07:44:37.027Z,92695.03
2022-10-17T07:47:04.392Z,92703.88
2022-10-17T07:49:31.408Z,92683.81
2022-10-17T07:51:58.119Z,92698.34
2022-10-17T07:54:24.845Z,92692.78
2022-10-17T07:56:51.547Z,92695.09
2022-10-17T07:59:19.247Z,92694.66
2022-10-17T08:01:45.980Z,92696.81
2022-10-17T08:04:12.828Z,92692.06
2022-10-17T08:06:39.506Z,92692.16
2022-10-17T08:09:06.683Z,92695.09
2022-10-17T08:11:33.434Z,92677.66
2022-10-17T08:14:00.088Z,92697.09
2022-10-17T08:16:26.835Z,92687.38
2022-10-17T08:18:53.890Z,92691.00
2022-10-17T08:21:20.584Z,92691.28
2022-10-17T08:23:47.293Z,92697.97
2022-10-17T08:26:17.392Z,92695.97
2022-10-17T08:28:44.439Z,92700.75
2022-10-17T08:31:13.650Z,92702.00
2022-10-17T08:33:41.842Z,92690.81
2022-10-17T08:36:09.728Z,92695.53
2022-10-17T08:38:40.369Z,92695.91
2022-10-17T08:41:34.829Z,92696.38
2022-10-17T08:44:05.635Z,92674.56
2022-10-17T08:46:37.781Z,92696.50
2022-10-17T08:49:12.098Z,92688.31
2022-10-17T08:51:47.990Z,92687.69
2022-10-17T08:54:24.339Z,92688.03
2022-10-17T08:56:54.807Z,92689.91
2022-10-17T08:59:29.864Z,92686.47
2022-10-17T09:02:18.204Z,92688.41
2022-10-17T09:05:26.807Z,92676.56
2022-10-17T09:08:16.609Z,92697.28
2022-10-17T09:11:01.159Z,92698.50
2022-10-17T09:13:45.553Z,92698.97
2022-10-17T09:16:23.452Z,92690.88
2022-10-17T09:19:07.317Z,92692.94
2022-10-17T09:21:44.528Z,92687.22
2022-10-17T09:24:46.309Z,92686.41
2022-10-17T09:27:39.395Z,92690.38
2022-10-17T09:30:46.419Z,92688.13
2022-10-17T09:36:24.618Z,92674.00
2022-10-17T09:38:58.672Z,92677.41
2022-10-17T09:41:46.781Z,92676.97
2022-10-17T09:44:41.391Z,92670.25
2022-10-17T09:47:39.430Z,92671.88
2022-10-17T09:50:20.786Z,92673.94
2022-10-17T09:52:50.699Z,92674.28
2022-10-17T09:55:21.668Z,92669.94
2022-10-17T09:58:08.363Z,92661.69
2022-10-17T10:00:41.808Z,92659.22
2022-10-17T10:03:19.963Z,92655.19
2022-10-17T10:06:06.293Z,92655.03
2022-10-17T10:08:36.536Z,92652.53
2022-10-17T10:11:13.380Z,92646.78
2022-10-17T10:13:41.036Z,92613.13
2022-10-17T10:16:17.079Z,92645.25
2022-10-17T10:18:47.418Z,92645.13
2022-10-17T10:21:22.394Z,92641.75
2022-10-17T10:24:10.818Z,92640.63
2022-10-17T10:26:47.713Z,92599.75
2022-10-17T10:29:26.780Z,92643.47
2022-10-17T10:34:47.506Z,92636.63
2022-10-17T10:37:38.748Z,92637.88
2022-10-17T10:40:44.622Z,92629.16
2022-10-17T10:43:42.209Z,92620.56
2022-10-17T10:46:29.933Z,92617.88
2022-10-17T10:49:00.351Z,92621.25
2022-10-17T10:51:45.028Z,92620.69
2022-10-17T10:54:18.005Z,92617.75
2022-10-17T10:56:53.555Z,92614.13
2022-10-17T10:59:33.311Z,92612.13
2022-10-17T11:02:18.033Z,92613.44
2022-10-17T11:04:52.831Z,92615.16
2022-10-17T11:07:26.525Z,92617.63
2022-10-17T11:10:12.274Z,92613.22
2022-10-17T11:12:38.930Z,92614.06
2022-10-17T11:15:25.798Z,92608.44
2022-10-17T11:17:59.238Z,92607.13
2022-10-17T11:20:58.280Z,92615.25
2022-10-17T11:23:34.318Z,92614.19
2022-10-17T11:26:07.853Z,92606.44
2022-10-17T11:28:34.708Z,92611.44
2022-10-17T11:31:07.968Z,92603.41
2022-10-17T11:33:59.819Z,92599.50
2022-10-17T11:36:30.819Z,92587.91
2022-10-17T11:39:03.752Z,92590.31
2022-10-17T11:41:43.822Z,92594.03
2022-10-17T11:44:29.903Z,92586.13
2022-10-17T11:47:01.869Z,92589.38
2022-10-17T11:49:38.196Z,92565.72
2022-10-17T11:52:51.738Z,92592.06
2022-10-17T11:55:27.467Z,92590.53
2022-10-17T11:58:33.106Z,92577.59
2022-10-17T12:01:05.797Z,92598.88
2022-10-17T12:03:49.649Z,92598.31
2022-10-17T12:06:16.317Z,92598.41
2022-10-17T12:09:02.659Z,92597.41
2022-10-17T12:11:41.113Z,92592.53
2022-10-17T12:14:39.063Z,92592.00
2022-10-17T12:17:23.931Z,92594.38
2022-10-17T12:19:50.682Z,92592.06
2022-10-17T12:22:21.833Z,92598.72
2022-10-17T12:25:04.538Z,92595.25
2022-10-17T12:27:46.071Z,92600.44
2022-10-17T12:30:12.820Z,92594.34
2022-10-17T12:33:05.623Z,92593.22
2022-10-17T12:35:35.947Z,92586.47
2022-10-17T12:38:19.372Z,92596.41
2022-10-17T12:40:50.615Z,92597.38
2022-10-17T12:43:17.207Z,92590.97
2022-10-17T12:45:53.921Z,92583.03
2022-10-17T12:48:40.474Z,92592.16
2022-10-17T12:51:34.226Z,92592.69
2022-10-17T12:54:15.105Z,92592.63
2022-10-17T12:56:47.832Z,92594.41
2022-10-17T12:59:16.740Z,92596.81
2022-10-17T13:01:51.735Z,92591.66
2022-10-17T13:04:19.028Z,92593.84
2022-10-17T13:06:54.588Z,92595.03
2022-10-17T13:09:35.386Z,92605.25
2022-10-17T13:12:05.093Z,92602.53
2022-10-17T13:14:34.046Z,92598.63
2022-10-17T13:17:03.721Z,92599.13
2022-10-17T13:19:39.812Z,92609.28
2022-10-17T13:22:18.289Z,92610.06
2022-10-17T13:24:45.720Z,92606.25
2022-10-17T13:27:26.879Z,92603.03
2022-10-17T13:29:56.835Z,92616.09
2022-10-17T13:32:25.512Z,92586.59
2022-10-17T13:35:07.274Z,92606.75
2022-10-17T13:37:35.453Z,92611.09
2022-10-17T13:40:17.543Z,92607.69
2022-10-17T13:42:51.152Z,92616.44
2022-10-17T13:45:24.495Z,92616.19
2022-10-17T13:47:51.365Z,92622.81
2022-10-17T13:50:44.283Z,92623.84
2022-10-17T13:53:31.478Z,92625.34
2022-10-17T13:56:23.239Z,92616.44
2022-10-17T13:58:52.832Z,92617.44
2022-10-17T14:01:21.313Z,92622.72
2022-10-17T14:03:51.799Z,92623.88
2022-10-17T14:06:25.212Z,92619.28
2022-10-17T14:09:05.446Z,92623.78
2022-10-17T14:11:44.220Z,92620.81
2022-10-17T14:14:23.648Z,92620.47
2022-10-17T14:16:50.386Z,92632.53
2022-10-17T14:19:28.904Z,92636.25
2022-10-17T14:22:14.118Z,92632.41
2022-10-17T14:24:42.323Z,92632.84
2022-10-17T14:27:27.464Z,92640.50
2022-10-17T14:29:56.129Z,92643.66
2022-10-17T14:32:22.872Z,92645.50
2022-10-17T14:34:58.356Z,92647.50
2022-10-17T14:37:45.000Z,92661.16
2022-10-17T14:40:20.862Z,92659.28
2022-10-17T14:42:48.418Z,92660.41
2022-10-17T14:45:23.784Z,92665.78
2022-10-17T14:47:52.864Z,92665.81
2022-10-17T14:50:28.485Z,92664.34
2022-10-17T14:53:10.270Z,92672.28
2022-10-17T14:55:38.727Z,92679.50
2022-10-17T14:58:22.759Z,92680.94
2022-10-17T15:00:49.409Z,92672.50
2022-10-17T15:03:19.223Z,92673.94
2022-10-17T15:05:50.011Z,92685.91
2022-10-17T15:08:18.544Z,92686.59
2022-10-17T15:10:46.834Z,92687.91
2022-10-17T15:13:27.699Z,92692.38
2022-10-17T15:15:55.207Z,92675.13
2022-10-17T15:18:21.886Z,92702.13
2022-10-17T15:20:55.251Z,92693.13
2022-10-17T15:23:31.447Z,92708.66
2022-10-17T15:25:58.081Z,92714.75
2022-10-17T15:28:24.774Z,92714.66
2022-10-17T15:30:51.514Z,92718.81
2022-10-17T15:33:18.249Z,92711.84
2022-10-17T15:35:45.082Z,92718.63
2022-10-17T15:38:17.139Z,92714.84
2022-10-17T15:40:43.828Z,92717.28
2022-10-17T15:43:10.507Z,92720.88
2022-10-17T15:45:37.902Z,92729.25
2022-10-17T15:48:07.388Z,92720.03
2022-10-17T15:50:34.558Z,92722.88
2022-10-17T15:53:01.197Z,92731.84
2022-10-17T15:55:28.052Z,92707.91
2022-10-17T15:57:54.845Z,92732.84
2022-10-17T16:00:23.774Z,92738.38
2022-10-17T16:02:51.000Z,92730.38
2022-10-17T16:05:23.454Z,92743.22
2022-10-17T16:07:50.583Z,92747.47
2022-10-17T16:10:17.787Z,92748.69
2022-10-17T16:12:45.041Z,92761.72
2022-10-17T16:15:23.528Z,92773.34
2022-10-17T16:17:51.166Z,92770.41
2022-10-17T16:20:18.498Z,92782.69
2022-10-17T16:22:46.456Z,92783.16
2022-10-17T16:25:21.220Z,92794.22
2022-10-17T16:27:50.505Z,92802.13
2022-10-17T16:30:17.773Z,92786.38
2022-10-17T16:32:44.713Z,92797.09
2022-10-17T16:35:19.054Z,92800.34
2022-10-17T16:37:45.787Z,92802.13
2022-10-17T16:40:12.492Z,92810.09
2022-10-17T16:42:39.173Z,92808.41
2022-10-17T16:45:06.407Z,92813.56
2022-10-17T16:47:33.058Z,92813.25
2022-10-17T16:49:59.901Z,92815.38
2022-10-17T16:52:26.733Z,92820.28
2022-10-17T16:54:53.495Z,92809.06
2022-10-17T16:57:20.384Z,92819.63
2022-10-17T16:59:47.002Z,92812.38
2022-10-17T17:02:16.359Z,92821.06
2022-10-17T17:04:45.723Z,92824.94
2022-10-17T17:07:12.515Z,92805.06
2022-10-17T17:09:39.879Z,92834.72
2022-10-17T17:12:06.707Z,92832.50
2022-10-17T17:14:33.340Z,92831.91
2022-10-17T17:17:00.050Z,92846.44
2022-10-17T17:19:26.727Z,92839.19
2022-10-17T17:21:53.442Z,92843.09
2022-10-17T17:24:21.595Z,92836.50
2022-10-17T17:26:56.047Z,92846.97
2022-10-17T17:29:24.847Z,92847.84
2022-10-17T17:31:51.905Z,92855.31
2022-10-17T17:34:18.666Z,92844.81
2022-10-17T17:36:45.645Z,92845.91
2022-10-17T17:39:13.996Z,92846.69
2022-10-17T17:41:42.072Z,92843.78
2022-10-17T17:44:13.970Z,92849.66
2022-10-17T17:46:43.695Z,92859.34
2022-10-17T17:49:11.632Z,92841.13
2022-10-17T17:51:38.787Z,92847.78
2022-10-17T17:54:05.508Z,92839.63
2022-10-17T17:56:32.423Z,92850.56
2022-10-17T17:59:02.941Z,92854.56
2022-10-17T18:01:32.023Z,92849.81
2022-10-17T18:03:59.420Z,92868.25
2022-10-17T18:06:27.485Z,92856.28
2022-10-17T18:08:57.977Z,92856.28
2022-10-17T18:11:25.728Z,92860.41
2022-10-17T18:14:05.374Z,92863.81
2022-10-17T18:16:33.648Z,92863.97
2022-10-17T18:19:06.741Z,92849.81
2022-10-17T18:21:34.600Z,92866.59
2022-10-17T18:24:01.808Z,92863.56
2022-10-17T18:26:28.561Z,92869.44
2022-10-17T18:28:55.302Z,92872.34
2022-10-17T18:31:24.555Z,92865.13
2022-10-17T18:33:53.020Z,92868.84
2022-10-17T18:36:20.473Z,92857.75
2022-10-17T18:38:47.175Z,92865.13
2022-10-17T18:41:17.205Z,92870.03
2022-10-17T18:43:45.659Z,92830.06
2022-10-17T18:46:15.367Z,92866.44
2022-10-17T18:48:44.664Z,92866.41
2022-10-17T18:51:12.488Z,92870.34
2022-10-17T18:53:41.283Z,92873.94
2022-10-17T18:56:08.674Z,92874.25
2022-10-17T18:58:37.422Z,92873.91
2022-10-17T19:01:06.102Z,92871.84
2022-10-17T19:03:32.920Z,92870.25
2022-10-17T19:06:07.261Z,92871.59
2022-10-17T19:08:35.173Z,92881.69
2022-10-17T19:11:10.334Z,92884.50
2022-10-17T19:13:37.015Z,92857.34
2022-10-17T19:16:12.405Z,92895.09
2022-10-17T19:18:39.465Z,92890.06
2022-10-17T19:21:08.646Z,92883.84
2022-10-17T19:23:36.437Z,92878.97
2022-10-17T19:26:08.288Z,92882.22
2022-10-17T19:28:36.786Z,92891.06
2022-10-17T19:31:05.122Z,92880.69
2022-10-17T19:33:32.915Z,92874.88
2022-10-17T19:36:02.350Z,92891.41
2022-10-17T19:38:29.494Z,92886.69
2022-10-17T19:40:56.386Z,92887.75
2022-10-17T19:43:23.491Z,92893.16
2022-10-17T19:45:58.929Z,92892.25
2022-10-17T19:48:26.599Z,92889.34
2022-10-17T19:50:54.123Z,92897.22
2022-10-17T19:53:23.345Z,92889.50
2022-10-17T19:55:50.913Z,92891.31
2022-10-17T19:58:17.586Z,92894.50
2022-10-17T20:00:52.806Z,92894.69
2022-10-17T20:03:19.416Z,92902.28
2022-10-17T20:05:46.511Z,92901.81
2022-10-17T20:08:14.036Z,92911.31
2022-10-17T20:10:41.306Z,92894.56
2022-10-17T20:13:08.264Z,92897.94
2022-10-17T20:15:35.791Z,92896.16
2022-10-17T20:18:03.100Z,92885.81
2022-10-17T20:20:30.048Z,92889.75
2022-10-17T20:22:56.829Z,92873.09
2022-10-17T20:25:23.601Z,92883.22
2022-10-17T20:27:50.267Z,92879.34
2022-10-17T20:30:16.997Z,92883.38
2022-10-17T20:32:43.710Z,92874.78
2022-10-17T20:35:10.444Z,92846.56
2022-10-17T20:37:41.632Z,92877.69
2022-10-17T20:40:33.571Z,92864.84
2022-10-17T20:42:56.613Z,92881.03
2022-10-17T20:45:37.458Z,92875.03
2022-10-17T20:48:15.290Z,92871.28
2022-10-17T20:50:43.545Z,92872.50
2022-10-17T20:53:35.482Z,92869.81
2022-10-17T20:56:09.307Z,92872.78
2022-10-17T20:58:36.210Z,92835.50
2022-10-17T21:01:10.610Z,92865.06
2022-10-17T21:03:42.380Z,92861.97
2022-10-17T21:06:12.231Z,92852.25
2022-10-17T21:08:39.093Z,92851.38
2022-10-17T21:11:17.734Z,92852.34
2022-10-17T21:13:45.487Z,92857.56
2022-10-17T21:16:14.920Z,92854.69
2022-10-17T21:18:42.800Z,92853.63
2022-10-17T21:21:15.658Z,92864.31
2022-10-17T21:23:46.039Z,92869.88
2022-10-17T21:26:17.287Z,92870.63
2022-10-17T21:28:45.372Z,92859.66
2022-10-17T21:31:22.694Z,92869.97
2022-10-17T21:33:54.836Z,92865.16
2022-10-17T21:36:22.385Z,92862.16
2022-10-17T21:38:51.133Z,92858.91
2022-10-17T21:41:19.699Z,92870.19
2022-10-17T21:43:47.252Z,92862.09
2022-10-17T21:46:17.154Z,92861.03
2022-10-17T21:48:45.535Z,92856.88
2022-10-17T21:51:14.947Z,92834.63
2022-10-17T21:53:42.474Z,92857.16
2022-10-17T21:56:18.079Z,92865.84
2022-10-17T21:58:45.546Z,92858.53
2022-10-17T22:01:24.326Z,92858.72
2022-10-17T22:03:53.708Z,92868.66
2022-10-17T22:06:39.223Z,92865.34
2022-10-17T22:09:18.694Z,92866.81
2022-10-17T22:11:50.817Z,92861.13
2022-10-17T22:14:19.341Z,92864.09
2022-10-17T22:16:47.230Z,92848.25
2022-10-17T22:19:16.494Z,92863.22
2022-10-17T22:21:43.142Z,92858.44
2022-10-17T22:24:14.107Z,92859.41
2022-10-17T22:26:42.145Z,92861.81
2022-10-17T22:29:09.596Z,92849.94
2022-10-17T22:31:37.255Z,92855.06
2022-10-17T22:34:07.035Z,92851.91
2022-10-17T22:36:34.805Z,92856.41
2022-10-17T22:39:01.701Z,92867.28
2022-10-17T22:41:28.387Z,92860.56
2022-10-17T22:43:55.059Z,92846.50
2022-10-17T22:46:22.015Z,92836.50
2022-10-17T22:48:48.713Z,92853.81
2022-10-17T22:51:15.929Z,92856.88
2022-10-17T22:53:42.807Z,92851.47
2022-10-17T22:56:12.069Z,92845.72
2022-10-17T22:58:39.256Z,92851.81
2022-10-17T23:01:07.958Z,92856.81
2022-10-17T23:03:35.848Z,92851.81
2022-10-17T23:06:03.184Z,92844.94
2022-10-17T23:08:30.572Z,92853.63
2022-10-17T23:10:57.561Z,92845.72
2022-10-17T23:13:24.303Z,92836.88
2022-10-17T23:15:55.764Z,92833.69
2022-10-17T23:18:23.508Z,92844.97
2022-10-17T23:20:50.359Z,92850.78
2022-10-17T23:23:17.739Z,92829.63
2022-10-17T23:25:44.602Z,92823.56
2022-10-17T23:28:11.922Z,92840.97
2022-10-17T23:30:39.317Z,92831.63
2022-10-17T23:33:06.750Z,92817.38
2022-10-17T23:35:33.914Z,92823.34
2022-10-17T23:38:00.549Z,92840.28
2022-10-17T23:40:28.136Z,92830.38
2022-10-17T23:43:04.638Z,92804.06
2022-10-17T23:45:36.111Z,92801.28
2022-10-17T23:48:05.155Z,92813.44
2022-10-17T23:50:31.873Z,92827.31
2022-10-17T23:52:58.590Z,92820.78
2022-10-17T23:55:25.226Z,92808.47
2022-10-17T23:57:52.073Z,92820.06
